Elberta, Utah
Current Conditions -  °F | °C
As of 4:50 PM on Tuesday 21 Oct 2014 (Local Time) from KPVU Reporting Station
Scattered Clouds Scattered Clouds  
Wind Chill: 61°   Ceiling: Unl
Heat Index: 61°   Visibility: 10mi
Dew Point: 39°   Wind: 17mph
Humidity: 45%   Direction: 310°NW
Pressure: 29.98"   Gusts: 23mph
Location:  39.95°N, 111.96°W
Report Text: KPVU 212250Z 31015G20KT 10SM SCT080 SCT120 16/04 A2998
Loading
Personal Weather Stations






























Interactive Weather Map
Tropical Storm Tracking
New forecast layout! Learn more

10-Day Weather Forecast

Advertisements
Track Severe Weather on mobile